createdAt,value
2019-01-21T00:00:14.595Z,-1.79
2019-01-21T00:01:15.279Z,-1.89
2019-01-21T00:02:15.958Z,-1.99
2019-01-21T00:03:17.040Z,-2
2019-01-21T00:04:17.457Z,-1.97
2019-01-21T00:05:17.860Z,-2.04
2019-01-21T00:06:18.818Z,-2.02
2019-01-21T00:07:19.225Z,-1.99
2019-01-21T00:08:19.906Z,-1.99
2019-01-21T00:09:20.920Z,-2.08
2019-01-21T00:10:20.600Z,-2.1
2019-01-21T00:11:21.573Z,-2.05
2019-01-21T00:12:22.270Z,-2.1
2019-01-21T00:13:22.364Z,-2.13
2019-01-21T00:14:22.489Z,-2.07
2019-01-21T00:15:23.169Z,-2.13
2019-01-21T00:16:24.442Z,-2.05
2019-01-21T00:17:24.849Z,-2.07
2019-01-21T00:18:25.973Z,-2.18
2019-01-21T00:19:26.654Z,-2.07
2019-01-21T00:20:27.340Z,-2.18
2019-01-21T00:21:27.750Z,-2.11
2019-01-21T00:22:28.710Z,-2.13
2019-01-21T00:23:29.091Z,-2.13
2019-01-21T00:24:30.048Z,-2.08
2019-01-21T00:25:31.174Z,-2.11
2019-01-21T00:26:31.892Z,-2.17
2019-01-21T00:27:32.849Z,-2.13
2019-01-21T00:28:33.250Z,-2.13
2019-01-21T00:29:33.675Z,-2.17
2019-01-21T00:30:34.079Z,-2.29
2019-01-21T00:31:34.491Z,-2.23
2019-01-21T00:32:36.172Z,-2.17
2019-01-21T00:33:36.990Z,-2.26
2019-01-21T00:34:37.230Z,-2.4
2019-01-21T00:35:37.632Z,-2.37
2019-01-21T00:36:39.086Z,-2.34
2019-01-21T00:37:39.771Z,-2.33
2019-01-21T00:38:39.898Z,-2.37
2019-01-21T00:39:41.026Z,-2.37
2019-01-21T00:40:41.726Z,-2.33
2019-01-21T00:41:43.130Z,-2.28
2019-01-21T00:42:44.095Z,-2.32
2019-01-21T00:43:45.016Z,-2.34
2019-01-21T00:44:44.699Z,-2.25
2019-01-21T00:45:45.384Z,-2.28
2019-01-21T00:46:46.067Z,-2.26
2019-01-21T00:47:46.752Z,-2.25
2019-01-21T00:48:48.156Z,-2.37
2019-01-21T00:49:48.843Z,-2.42
2019-01-21T00:50:48.973Z,-2.4
2019-01-21T00:51:50.099Z,-2.51
2019-01-21T00:52:50.780Z,-2.42
2019-01-21T00:53:51.314Z,-2.54
2019-01-21T00:54:52.721Z,-2.4
2019-01-21T00:55:53.122Z,-2.47
2019-01-21T00:56:54.811Z,-2.52
2019-01-21T00:57:55.492Z,-2.42
2019-01-21T00:58:56.172Z,-2.47
2019-01-21T00:59:56.576Z,-2.48
2019-01-21T01:00:57.262Z,-2.5
2019-01-21T01:01:58.216Z,-2.5
2019-01-21T01:02:58.344Z,-2.55
2019-01-21T01:03:59.714Z,-2.54
2019-01-21T01:05:00.441Z,-2.55
2019-01-21T01:06:01.000Z,-2.57
2019-01-21T01:07:01.724Z,-2.61
2019-01-21T01:08:02.403Z,-2.61
2019-01-21T01:09:03.373Z,-2.61
2019-01-21T01:10:04.330Z,-2.68
2019-01-21T01:11:05.013Z,-2.7
2019-01-21T01:12:05.140Z,-2.58
2019-01-21T01:13:06.391Z,-2.58
2019-01-21T01:14:06.219Z,-2.57
2019-01-21T01:15:06.621Z,-2.52
2019-01-21T01:16:07.303Z,-2.62
2019-01-21T01:17:07.706Z,-2.58
2019-01-21T01:18:08.387Z,-2.54
2019-01-21T01:19:09.344Z,-2.55
2019-01-21T01:20:10.631Z,-2.5
2019-01-21T01:21:10.865Z,-2.61
2019-01-21T01:22:11.548Z,-2.65
2019-01-21T01:23:12.672Z,-2.55
2019-01-21T01:24:13.201Z,-2.58
2019-01-21T01:25:13.607Z,-2.55
2019-01-21T01:26:14.584Z,-2.55
2019-01-21T01:27:14.988Z,-2.58
2019-01-21T01:28:16.673Z,-2.58
2019-01-21T01:29:17.354Z,-2.69
2019-01-21T01:30:18.036Z,-2.75
2019-01-21T01:31:18.718Z,-2.68
2019-01-21T01:32:19.399Z,-2.75
2019-01-21T01:33:20.633Z,-2.8
2019-01-21T01:34:21.001Z,-2.84
2019-01-21T01:34:43.844Z,-2.83
2019-01-21T01:35:44.938Z,-2.9
2019-01-21T01:36:45.620Z,-2.86
2019-01-21T01:37:46.746Z,-2.86
2019-01-21T01:38:47.426Z,-2.91
2019-01-21T01:39:47.553Z,-2.9
2019-01-21T01:40:48.793Z,-2.9
2019-01-21T01:41:49.197Z,-2.93
2019-01-21T01:42:50.331Z,-2.93
2019-01-21T01:43:51.468Z,-2.87
2019-01-21T01:44:52.153Z,-2.96
2019-01-21T01:45:52.118Z,-2.8
2019-01-21T01:46:52.528Z,-2.8
2019-01-21T01:47:53.937Z,-2.8
2019-01-21T01:48:54.352Z,-2.81
2019-01-21T01:49:56.123Z,-2.83
2019-01-21T01:50:55.485Z,-2.83
2019-01-21T01:51:56.189Z,-2.72
2019-01-21T01:52:57.164Z,-2.72
2019-01-21T01:53:57.864Z,-2.84
2019-01-21T01:54:58.267Z,-2.94
2019-01-21T01:55:59.652Z,-2.86
2019-01-21T01:57:00.615Z,-2.93
2019-01-21T01:58:00.583Z,-2.96
2019-01-21T01:59:01.903Z,-2.93
2019-01-21T02:00:03.167Z,-2.91
2019-01-21T02:01:03.816Z,-2.86
2019-01-21T02:02:04.520Z,-2.9
2019-01-21T02:03:04.946Z,-2.84
2019-01-21T02:04:05.359Z,-2.8
2019-01-21T02:05:06.778Z,-2.8
2019-01-21T02:06:07.437Z,-2.76
2019-01-21T02:07:07.845Z,-2.81
2019-01-21T02:08:09.533Z,-2.8
2019-01-21T02:09:10.958Z,-2.73
2019-01-21T02:10:10.689Z,-2.8
2019-01-21T02:11:11.956Z,-2.83
2019-01-21T02:12:12.680Z,-2.8
2019-01-21T02:13:13.655Z,-2.93
2019-01-21T02:14:13.782Z,-2.96
2019-01-21T02:15:14.487Z,-2.94
2019-01-21T02:16:15.370Z,-3.12
2019-01-21T02:17:16.499Z,-2.96
2019-01-21T02:18:17.725Z,-3.09
2019-01-21T02:19:17.691Z,-2.99
2019-01-21T02:20:18.989Z,-2.96
2019-01-21T02:21:19.682Z,-2.98
2019-01-21T02:22:20.693Z,-3.02
2019-01-21T02:23:20.827Z,-3.08
2019-01-21T02:24:21.530Z,-3.17
2019-01-21T02:25:22.225Z,-3.12
2019-01-21T02:26:23.053Z,-3.23
2019-01-21T02:27:24.031Z,-3.19
2019-01-21T02:28:25.834Z,-3.19
2019-01-21T02:29:25.095Z,-3.25
2019-01-21T02:30:25.780Z,-3.25
2019-01-21T02:31:25.769Z,-3.2
2019-01-21T02:32:27.018Z,-3.23
2019-01-21T02:33:27.724Z,-3.2
2019-01-21T02:34:28.712Z,-3.17
2019-01-21T02:35:28.680Z,-3.22
2019-01-21T02:36:29.783Z,-3.26
2019-01-21T02:37:31.198Z,-3.17
2019-01-21T02:38:31.550Z,-3.15
2019-01-21T02:39:31.982Z,-3.11
2019-01-21T02:40:32.395Z,-3.12
2019-01-21T02:41:32.820Z,-3.09
2019-01-21T02:42:33.369Z,-3.11
2019-01-21T02:43:34.891Z,-3.12
2019-01-21T02:44:34.865Z,-3.17
2019-01-21T02:45:36.271Z,-3.2
2019-01-21T02:46:37.966Z,-3.22
2019-01-21T02:47:38.995Z,-3.19
2019-01-21T02:48:38.289Z,-3.2
2019-01-21T02:49:39.420Z,-3.25
2019-01-21T02:50:40.842Z,-3.22
2019-01-21T02:51:41.812Z,-3.22
2019-01-21T02:52:42.510Z,-3.17
2019-01-21T02:53:42.921Z,-3.25
2019-01-21T02:54:43.899Z,-3.19
2019-01-21T02:55:44.317Z,-3.17
2019-01-21T02:56:46.579Z,-3.14
2019-01-21T02:57:46.721Z,-3.22
2019-01-21T02:58:47.410Z,-3.25
2019-01-21T02:59:47.554Z,-3.17
2019-01-21T03:00:49.089Z,-3.25
2019-01-21T03:01:49.774Z,-3.33
2019-01-21T03:02:50.472Z,-3.32
2019-01-21T03:03:51.184Z,-3.48
2019-01-21T03:04:52.331Z,-3.61
2019-01-21T03:05:53.593Z,-3.56
2019-01-21T03:06:55.919Z,-3.64
2019-01-21T03:07:55.542Z,-3.74
2019-01-21T03:08:57.230Z,-3.59
2019-01-21T03:09:57.628Z,-3.58
2019-01-21T03:10:57.766Z,-3.61
2019-01-21T03:11:58.462Z,-3.65
2019-01-21T03:12:58.637Z,-3.53
2019-01-21T03:13:59.327Z,-3.59
2019-01-21T03:15:00.489Z,-3.65
2019-01-21T03:16:01.633Z,-3.71
2019-01-21T03:17:01.574Z,-3.65
2019-01-21T03:18:09.513Z,-3.64
2019-01-21T03:18:15.620Z,-3.59
2019-01-21T03:19:15.115Z,-3.56
2019-01-21T03:20:15.809Z,-3.58
2019-01-21T03:21:16.223Z,-3.66
2019-01-21T03:22:16.928Z,-3.68
2019-01-21T03:23:17.339Z,-3.69
2019-01-21T03:24:17.526Z,-3.69
2019-01-21T03:25:18.228Z,-3.81
2019-01-21T03:26:19.802Z,-3.77
2019-01-21T03:27:20.827Z,-3.77
2019-01-21T03:28:21.786Z,-3.83
2019-01-21T03:29:22.604Z,-3.61
2019-01-21T03:30:23.880Z,-3.66
2019-01-21T03:31:25.015Z,-3.78
2019-01-21T03:32:26.129Z,-3.83
2019-01-21T03:33:28.538Z,-3.77
2019-01-21T03:34:28.569Z,-3.94
2019-01-21T03:35:29.702Z,-3.98
2019-01-21T03:36:30.139Z,-4.04
2019-01-21T03:37:31.360Z,-4.05
2019-01-21T03:38:30.568Z,-3.96
2019-01-21T03:39:31.444Z,-4.13
2019-01-21T03:40:32.139Z,-4.13
2019-01-21T03:41:33.397Z,-4.13
2019-01-21T03:42:34.113Z,-4.2
2019-01-21T03:43:35.075Z,-4.19
2019-01-21T03:44:35.886Z,-4.17
2019-01-21T03:45:36.580Z,-4.19
2019-01-21T03:46:38.253Z,-4.24
2019-01-21T03:47:38.248Z,-4.22
2019-01-21T03:48:38.959Z,-4.23
2019-01-21T03:49:39.562Z,-4.23
2019-01-21T03:50:40.259Z,-4.22
2019-01-21T03:51:41.230Z,-4.22
2019-01-21T03:52:41.362Z,-4.22
2019-01-21T03:53:42.630Z,-4.23
2019-01-21T03:54:43.042Z,-4.26
2019-01-21T03:55:44.131Z,-4.24
2019-01-21T03:56:45.125Z,-4.3
2019-01-21T03:57:45.779Z,-4.37
2019-01-21T03:58:46.926Z,-4.33
2019-01-21T03:59:47.226Z,-4.4
2019-01-21T04:00:48.221Z,-4.49
2019-01-21T04:01:48.199Z,-4.47
2019-01-21T04:02:49.347Z,-4.51
2019-01-21T04:03:50.363Z,-4.51
2019-01-21T04:04:50.780Z,-4.51
2019-01-21T04:05:53.442Z,-4.42
2019-01-21T04:06:53.747Z,-4.38
2019-01-21T04:07:53.735Z,-4.33
2019-01-21T04:08:54.216Z,-4.3
2019-01-21T04:09:55.371Z,-4.22
2019-01-21T04:10:56.623Z,-4.24
2019-01-21T04:11:56.654Z,-4.27
2019-01-21T04:12:57.642Z,-4.19
2019-01-21T04:13:58.352Z,-4.08
2019-01-21T04:14:59.703Z,-4.19
2019-01-21T04:16:00.102Z,-4.17
2019-01-21T04:17:00.987Z,-4.31
2019-01-21T04:18:02.246Z,-4.24
2019-01-21T04:19:02.659Z,-4.27
2019-01-21T04:20:03.349Z,-4.23
2019-01-21T04:21:04.039Z,-4.17
2019-01-21T04:22:04.731Z,-4.08
2019-01-21T04:23:05.422Z,-4.09
2019-01-21T04:24:06.107Z,-4.14
2019-01-21T04:25:09.004Z,-4.04
2019-01-21T04:26:09.269Z,-4.05
2019-01-21T04:27:09.961Z,-4.04
2019-01-21T04:28:10.244Z,-4.04
2019-01-21T04:29:10.222Z,-4.01
2019-01-21T04:30:11.632Z,-4.09
2019-01-21T04:31:12.484Z,-4.02
2019-01-21T04:32:13.024Z,-3.94
2019-01-21T04:33:13.276Z,-4.04
2019-01-21T04:34:14.288Z,-3.91
2019-01-21T04:35:14.203Z,-3.87
2019-01-21T04:36:14.621Z,-3.87
2019-01-21T04:37:15.318Z,-3.88
2019-01-21T04:38:15.735Z,-3.83
2019-01-21T04:39:16.701Z,-3.81
2019-01-21T04:40:17.118Z,-3.66
2019-01-21T04:41:18.561Z,-3.68
2019-01-21T04:42:19.520Z,-3.74
2019-01-21T04:43:19.843Z,-3.58
2019-01-21T04:44:20.973Z,-3.61
2019-01-21T04:45:21.491Z,-3.56
2019-01-21T04:46:22.194Z,-3.56
2019-01-21T04:47:23.234Z,-3.53
2019-01-21T04:48:23.772Z,-3.65
2019-01-21T04:48:37.068Z,-3.65
2019-01-21T04:49:37.739Z,-3.66
2019-01-21T04:50:38.182Z,-3.59
2019-01-21T04:51:38.598Z,-3.62
2019-01-21T04:52:39.058Z,-3.58
2019-01-21T04:53:39.274Z,-3.65
2019-01-21T04:54:41.000Z,-3.61
2019-01-21T04:55:40.987Z,-3.64
2019-01-21T04:56:41.890Z,-3.64
2019-01-21T04:57:42.305Z,-3.66
2019-01-21T04:58:43.842Z,-3.65
2019-01-21T04:59:44.705Z,-3.68
2019-01-21T05:00:45.412Z,-3.8
2019-01-21T05:01:45.668Z,-3.69
2019-01-21T05:02:45.689Z,-3.78
2019-01-21T05:03:46.106Z,-3.87
2019-01-21T05:04:47.600Z,-3.78
2019-01-21T05:05:47.706Z,-3.87
2019-01-21T05:06:48.699Z,-3.78
2019-01-21T05:07:49.111Z,-3.94
2019-01-21T05:08:49.801Z,-4.01
2019-01-21T05:09:50.664Z,-3.9
2019-01-21T05:10:51.656Z,-3.88
2019-01-21T05:11:52.348Z,-3.83
2019-01-21T05:12:53.940Z,-3.94
2019-01-21T05:13:55.615Z,-3.91
2019-01-21T05:14:55.826Z,-3.95
2019-01-21T05:15:56.563Z,-3.99
2019-01-21T05:16:57.565Z,-4.05
2019-01-21T05:17:57.823Z,-3.95
2019-01-21T05:18:58.519Z,-4.05
2019-01-21T05:19:59.763Z,-4.09
2019-01-21T05:21:00.548Z,-4.16
2019-01-21T05:22:01.000Z,-4.2
2019-01-21T05:23:02.506Z,-4.16
2019-01-21T05:24:01.970Z,-4.06
2019-01-21T05:25:02.944Z,-4.01
2019-01-21T05:26:03.915Z,-4.02
2019-01-21T05:27:04.171Z,-4.04
2019-01-21T05:28:04.920Z,-4.06
2019-01-21T05:29:05.340Z,-4.02
2019-01-21T05:30:06.460Z,-3.98
2019-01-21T05:31:07.448Z,-4.02
2019-01-21T05:32:08.707Z,-3.91
2019-01-21T05:33:09.681Z,-3.98
2019-01-21T05:34:10.051Z,-3.83
2019-01-21T05:35:12.023Z,-3.91
2019-01-21T05:36:11.722Z,-3.87
2019-01-21T05:37:12.992Z,-3.81
2019-01-21T05:38:12.973Z,-3.98
2019-01-21T05:39:13.665Z,-3.94
2019-01-21T05:40:13.924Z,-4.02
2019-01-21T05:41:15.162Z,-3.98
2019-01-21T05:42:16.133Z,-3.99
2019-01-21T05:43:17.668Z,-4.01
2019-01-21T05:44:18.200Z,-4.01
2019-01-21T05:45:19.501Z,-3.99
2019-01-21T05:46:20.032Z,-4.13
2019-01-21T05:47:20.452Z,-4.01
2019-01-21T05:48:21.583Z,-4.04
2019-01-21T05:49:22.327Z,-4.01
2019-01-21T05:50:23.523Z,-4.01
2019-01-21T05:51:23.201Z,-3.98
2019-01-21T05:52:24.438Z,-3.98
2019-01-21T05:53:25.182Z,-3.95
2019-01-21T05:54:26.169Z,-4.02
2019-01-21T05:55:26.616Z,-3.98
2019-01-21T05:56:28.030Z,-3.78
2019-01-21T05:57:28.713Z,-3.77
2019-01-21T05:58:28.851Z,-3.75
2019-01-21T05:59:30.092Z,-3.56
2019-01-21T06:00:30.043Z,-3.64
2019-01-21T06:01:30.177Z,-3.51
2019-01-21T06:02:30.858Z,-3.58
2019-01-21T06:03:31.538Z,-3.56
2019-01-21T06:04:32.262Z,-3.61
2019-01-21T06:05:32.665Z,-3.62
2019-01-21T06:06:33.143Z,-3.65
2019-01-21T06:07:33.548Z,-3.64
2019-01-21T06:08:34.231Z,-3.75
2019-01-21T06:09:35.189Z,-3.74
2019-01-21T06:10:35.841Z,-3.61
2019-01-21T06:11:36.244Z,-3.64
2019-01-21T06:12:36.928Z,-3.62
2019-01-21T06:13:37.365Z,-3.64
2019-01-21T06:14:39.048Z,-3.59
2019-01-21T06:15:39.726Z,-3.62
2019-01-21T06:16:40.191Z,-3.65
2019-01-21T06:17:40.598Z,-3.58
2019-01-21T06:18:41.278Z,-3.68
2019-01-21T06:19:41.962Z,-3.66
2019-01-21T06:20:42.517Z,-3.74
2019-01-21T06:21:43.206Z,-3.71
2019-01-21T06:22:43.902Z,-3.71
2019-01-21T06:23:45.485Z,-3.74
2019-01-21T06:24:46.110Z,-3.71
2019-01-21T06:25:47.773Z,-3.71
2019-01-21T06:26:47.325Z,-3.74
2019-01-21T06:27:48.772Z,-3.71
2019-01-21T06:28:49.291Z,-3.64
2019-01-21T06:29:50.187Z,-3.59
2019-01-21T06:30:50.460Z,-3.62
2019-01-21T06:31:51.143Z,-3.62
2019-01-21T06:32:51.107Z,-3.55
2019-01-21T06:33:52.389Z,-3.51
2019-01-21T06:34:53.493Z,-3.4
2019-01-21T06:35:53.454Z,-3.23
2019-01-21T06:36:53.414Z,-3.33
2019-01-21T06:37:53.844Z,-3.3
2019-01-21T06:38:55.230Z,-3.3
2019-01-21T06:39:55.932Z,-3.3
2019-01-21T06:40:56.821Z,-3.25
2019-01-21T06:41:57.976Z,-3.19
2019-01-21T06:42:57.686Z,-3.25
2019-01-21T06:43:59.113Z,-3.19
2019-01-21T06:45:00.248Z,-3.17
2019-01-21T06:46:01.302Z,-3.14
2019-01-21T06:47:02.308Z,-3.01
2019-01-21T06:48:02.816Z,-3.14
2019-01-21T06:49:06.175Z,-3.14
2019-01-21T06:50:09.053Z,-2.98
2019-01-21T06:51:09.648Z,-3.04
2019-01-21T06:52:09.709Z,-3.08
2019-01-21T06:53:10.181Z,-2.98
2019-01-21T06:54:10.796Z,-2.94
2019-01-21T06:55:11.212Z,-2.94
2019-01-21T06:56:11.893Z,-2.96
2019-01-21T06:57:12.306Z,-2.96
2019-01-21T06:58:13.205Z,-2.96
2019-01-21T06:59:14.771Z,-3.01
2019-01-21T07:00:17.095Z,-2.98
2019-01-21T07:01:15.632Z,-3.08
2019-01-21T07:02:17.609Z,-3.17
2019-01-21T07:03:18.814Z,-3.14
2019-01-21T07:04:18.997Z,-3.11
2019-01-21T07:05:19.444Z,-2.99
2019-01-21T07:06:19.846Z,-3.09
2019-01-21T07:07:23.889Z,-3.07
2019-01-21T07:07:35.136Z,-3.01
2019-01-21T07:08:34.765Z,-3.12
2019-01-21T07:09:35.004Z,-2.98
2019-01-21T07:10:35.771Z,-2.98
2019-01-21T07:11:36.519Z,-2.91
2019-01-21T07:12:40.833Z,-2.94
2019-01-21T07:12:49.978Z,-2.89
2019-01-21T07:13:52.375Z,-2.89
2019-01-21T07:14:00.626Z,-2.89
2019-01-21T07:15:02.392Z,-2.93
2019-01-21T07:16:03.603Z,-2.96
2019-01-21T07:17:06.687Z,-2.83
2019-01-21T07:18:06.334Z,-2.81
2019-01-21T07:19:12.307Z,-2.8
2019-01-21T07:19:18.292Z,-2.8
2019-01-21T07:20:18.416Z,-2.76
2019-01-21T07:21:19.102Z,-2.81
2019-01-21T07:22:20.230Z,-2.73
2019-01-21T07:23:20.918Z,-2.8
2019-01-21T07:24:22.602Z,-2.7
2019-01-21T07:25:23.025Z,-2.7
2019-01-21T07:26:23.602Z,-2.7
2019-01-21T07:27:24.370Z,-2.69
2019-01-21T07:28:25.900Z,-2.63
2019-01-21T07:29:25.585Z,-2.76
2019-01-21T07:30:26.403Z,-2.73
2019-01-21T07:31:26.963Z,-2.78
2019-01-21T07:32:27.687Z,-2.81
2019-01-21T07:33:27.814Z,-2.94
2019-01-21T07:34:28.950Z,-2.94
2019-01-21T07:35:29.356Z,-2.94
2019-01-21T07:36:30.486Z,-2.93
2019-01-21T07:37:34.411Z,-2.91
2019-01-21T07:38:32.383Z,-2.89
2019-01-21T07:39:37.081Z,-2.8
2019-01-21T07:39:47.368Z,-2.81
2019-01-21T07:40:45.213Z,-2.75
2019-01-21T07:41:45.702Z,-2.72
2019-01-21T07:42:46.724Z,-2.78
2019-01-21T07:43:47.132Z,-2.75
2019-01-21T07:44:47.971Z,-2.75
2019-01-21T07:45:48.775Z,-2.72
2019-01-21T07:46:48.846Z,-2.63
2019-01-21T07:47:51.729Z,-2.66
2019-01-21T07:48:51.416Z,-2.69
2019-01-21T07:49:51.938Z,-2.58
2019-01-21T07:50:52.458Z,-2.57
2019-01-21T07:51:53.863Z,-2.66
2019-01-21T07:52:54.271Z,-2.62
2019-01-21T07:53:55.399Z,-2.66
2019-01-21T07:54:56.098Z,-2.63
2019-01-21T07:55:56.502Z,-2.68
2019-01-21T07:56:57.978Z,-2.65
2019-01-21T07:57:58.391Z,-2.68
2019-01-21T07:58:59.630Z,-2.58
2019-01-21T07:59:59.761Z,-2.57
2019-01-21T08:01:03.997Z,-2.63
2019-01-21T08:02:06.518Z,-2.61
2019-01-21T08:02:19.990Z,-2.62
2019-01-21T08:02:33.132Z,-2.51
2019-01-21T08:02:44.604Z,-2.55
2019-01-21T08:02:55.169Z,-2.55
2019-01-21T08:03:53.568Z,-2.55
2019-01-21T08:04:54.255Z,-2.57
2019-01-21T08:05:54.387Z,-2.55
2019-01-21T08:07:10.393Z,-2.42
2019-01-21T08:07:23.198Z,-2.54
2019-01-21T08:07:36.720Z,-2.4
2019-01-21T08:07:49.557Z,-2.45
2019-01-21T08:07:58.343Z,-2.48
2019-01-21T08:08:58.707Z,-2.51
2019-01-21T08:09:59.393Z,-2.42
2019-01-21T08:11:00.811Z,-2.4
2019-01-21T08:12:01.540Z,-2.37
2019-01-21T08:13:02.508Z,-2.4
2019-01-21T08:14:03.874Z,-2.33
2019-01-21T08:15:04.566Z,-2.36
2019-01-21T08:16:05.252Z,-2.23
2019-01-21T08:17:05.944Z,-2.29
2019-01-21T08:18:06.332Z,-2.25
2019-01-21T08:19:07.066Z,-2.26
2019-01-21T08:20:07.195Z,-2.29
2019-01-21T08:21:08.445Z,-2.34
2019-01-21T08:22:13.013Z,-2.33
2019-01-21T08:23:10.977Z,-2.33
2019-01-21T08:24:10.942Z,-2.28
2019-01-21T08:25:11.388Z,-2.26
2019-01-21T08:26:12.797Z,-2.25
2019-01-21T08:27:13.483Z,-2.26
2019-01-21T08:28:14.451Z,-2.39
2019-01-21T08:29:15.583Z,-2.37
2019-01-21T08:30:16.271Z,-2.48
2019-01-21T08:31:17.004Z,-2.42
2019-01-21T08:32:17.413Z,-2.42
2019-01-21T08:33:18.542Z,-2.47
2019-01-21T08:34:19.968Z,-2.55
2019-01-21T08:35:20.382Z,-2.62
2019-01-21T08:36:20.803Z,-2.55
2019-01-21T08:37:21.769Z,-2.63
2019-01-21T08:38:25.913Z,-2.5
2019-01-21T08:38:36.935Z,-2.5
2019-01-21T08:39:34.496Z,-2.51
2019-01-21T08:40:37.269Z,-2.5
2019-01-21T08:41:39.808Z,-2.55
2019-01-21T08:42:38.222Z,-2.52
2019-01-21T08:43:39.634Z,-2.4
2019-01-21T08:44:41.318Z,-2.54
2019-01-21T08:45:42.004Z,-2.45
2019-01-21T08:46:42.696Z,-2.45
2019-01-21T08:47:46.211Z,-2.44
2019-01-21T08:47:58.109Z,-2.34
2019-01-21T08:48:07.447Z,-2.29
2019-01-21T08:49:07.182Z,-2.25
2019-01-21T08:50:07.856Z,-2.22
2019-01-21T08:51:09.802Z,-2.17
2019-01-21T08:52:09.982Z,-2.14
2019-01-21T08:53:10.673Z,-2.22
2019-01-21T08:54:11.382Z,-2.07
2019-01-21T08:55:11.515Z,-2.1
2019-01-21T08:56:12.645Z,-2.18
2019-01-21T08:57:13.777Z,-2.14
2019-01-21T08:58:14.910Z,-2.08
2019-01-21T08:59:15.286Z,-2
2019-01-21T09:00:17.627Z,-2.05
2019-01-21T09:01:18.899Z,-2
2019-01-21T09:02:18.115Z,-2.05
2019-01-21T09:03:20.519Z,-1.86
2019-01-21T09:04:18.931Z,-1.9
2019-01-21T09:05:20.064Z,-1.75
2019-01-21T09:06:20.479Z,-1.69
2019-01-21T09:07:21.173Z,-1.71
2019-01-21T09:08:24.032Z,-1.71
2019-01-21T09:09:23.142Z,-1.68
2019-01-21T09:10:23.621Z,-1.72
2019-01-21T09:11:24.863Z,-1.64
2019-01-21T09:12:26.866Z,-1.63
2019-01-21T09:13:27.377Z,-1.58
2019-01-21T09:14:28.065Z,-1.5
2019-01-21T09:15:28.483Z,-1.54
2019-01-21T09:16:28.896Z,-1.5
2019-01-21T09:17:29.442Z,-1.53
2019-01-21T09:18:29.923Z,-1.53
2019-01-21T09:19:37.054Z,-1.39
2019-01-21T09:19:43.723Z,-1.46
2019-01-21T09:20:44.403Z,-1.43
2019-01-21T09:21:45.093Z,-1.36
2019-01-21T09:22:46.235Z,-1.39
2019-01-21T09:23:49.802Z,-1.36
2019-01-21T09:24:49.491Z,-1.36
2019-01-21T09:25:49.458Z,-1.36
2019-01-21T09:26:49.875Z,-1.33
2019-01-21T09:27:50.596Z,-1.35
2019-01-21T09:28:51.319Z,-1.42
2019-01-21T09:29:52.283Z,-1.42
2019-01-21T09:30:52.374Z,-1.33
2019-01-21T09:31:52.961Z,-1.42
2019-01-21T09:32:53.379Z,-1.42
2019-01-21T09:33:54.154Z,-1.38
2019-01-21T09:34:54.584Z,-1.36
2019-01-21T09:35:56.618Z,-1.36
2019-01-21T09:37:00.981Z,-1.35
2019-01-21T09:37:09.079Z,-1.35
2019-01-21T09:38:10.458Z,-1.46
2019-01-21T09:39:10.928Z,-1.36
2019-01-21T09:40:12.341Z,-1.33
2019-01-21T09:41:13.027Z,-1.3
2019-01-21T09:42:13.995Z,-1.25
2019-01-21T09:43:14.414Z,-1.21
2019-01-21T09:44:15.100Z,-1.19
2019-01-21T09:45:16.298Z,-1.14
2019-01-21T09:46:16.849Z,-1.17
2019-01-21T09:47:17.709Z,-1.18
2019-01-21T09:48:18.335Z,-1.15
2019-01-21T09:49:19.047Z,-1.19
2019-01-21T09:50:20.015Z,-1.18
2019-01-21T09:51:20.703Z,-1.14
2019-01-21T09:52:20.948Z,-1.15
2019-01-21T09:53:21.360Z,-1.15
2019-01-21T09:54:22.048Z,-1.15
2019-01-21T09:55:23.014Z,-1.07
2019-01-21T09:56:23.425Z,-1.15
2019-01-21T09:57:26.524Z,-1.18
2019-01-21T09:58:26.601Z,-1.14
2019-01-21T09:59:27.597Z,-1.12
2019-01-21T10:00:30.893Z,-1.15
2019-01-21T10:00:42.779Z,-1.14
2019-01-21T10:01:42.719Z,-1.01
2019-01-21T10:02:43.497Z,-1
2019-01-21T10:03:44.180Z,-0.97
2019-01-21T10:04:44.726Z,-0.94
2019-01-21T10:05:45.159Z,-0.94
2019-01-21T10:06:45.846Z,-0.94
2019-01-21T10:07:46.536Z,-0.97
2019-01-21T10:08:47.229Z,-1
2019-01-21T10:09:47.642Z,-0.94
2019-01-21T10:10:49.116Z,-0.96
2019-01-21T10:11:49.698Z,-0.97
2019-01-21T10:12:49.833Z,-1.03
2019-01-21T10:13:50.522Z,-1
2019-01-21T10:14:51.767Z,-0.99
2019-01-21T10:15:52.453Z,-0.94
2019-01-21T10:16:52.589Z,-0.89
2019-01-21T10:17:53.719Z,-0.84
2019-01-21T10:18:55.131Z,-0.87
2019-01-21T10:19:55.539Z,-0.78
2019-01-21T10:20:57.227Z,-0.81
2019-01-21T10:21:59.674Z,-0.75
2019-01-21T10:22:59.322Z,-0.72
2019-01-21T10:24:00.311Z,-0.77
2019-01-21T10:25:03.445Z,-0.74
2019-01-21T10:26:01.992Z,-0.81
2019-01-21T10:27:02.955Z,-0.84
2019-01-21T10:28:03.644Z,-0.82
2019-01-21T10:29:04.327Z,-0.75
2019-01-21T10:30:05.014Z,-0.78
2019-01-21T10:31:05.709Z,-0.81
2019-01-21T10:32:06.258Z,-0.78
2019-01-21T10:33:07.566Z,-0.75
2019-01-21T10:34:07.690Z,-0.64
2019-01-21T10:35:08.377Z,-0.67
2019-01-21T10:36:09.797Z,-0.8
2019-01-21T10:37:09.791Z,-0.75
2019-01-21T10:38:10.244Z,-0.82
2019-01-21T10:39:11.934Z,-0.75
2019-01-21T10:40:12.832Z,-0.66
2019-01-21T10:41:13.337Z,-0.75
2019-01-21T10:42:14.474Z,-0.8
2019-01-21T10:43:16.506Z,-0.94
2019-01-21T10:44:16.217Z,-0.93
2019-01-21T10:45:16.357Z,-0.91
2019-01-21T10:46:19.779Z,-0.96
2019-01-21T10:46:30.512Z,-0.89
2019-01-21T10:47:31.325Z,-0.93
2019-01-21T10:48:32.688Z,-0.85
2019-01-21T10:49:35.079Z,-0.87
2019-01-21T10:50:34.404Z,-0.8
2019-01-21T10:51:34.726Z,-0.78
2019-01-21T10:52:35.417Z,-0.72
2019-01-21T10:53:35.849Z,-0.72
2019-01-21T10:54:36.592Z,-0.64
2019-01-21T10:55:37.010Z,-0.64
2019-01-21T10:56:37.417Z,-0.67
2019-01-21T10:57:38.288Z,-0.66
2019-01-21T10:58:38.540Z,-0.66
2019-01-21T10:59:38.835Z,-0.64
2019-01-21T11:00:39.147Z,-0.62
2019-01-21T11:01:39.559Z,-0.62
2019-01-21T11:02:40.690Z,-0.6
2019-01-21T11:03:45.677Z,-0.53
2019-01-21T11:04:43.880Z,-0.45
2019-01-21T11:05:46.568Z,-0.49
2019-01-21T11:06:46.658Z,-0.49
2019-01-21T11:07:47.564Z,-0.46
2019-01-21T11:08:47.536Z,-0.44
2019-01-21T11:09:48.035Z,-0.36
2019-01-21T11:10:48.979Z,-0.26
2019-01-21T11:11:55.138Z,-0.27
2019-01-21T11:12:02.630Z,-0.27
2019-01-21T11:13:02.948Z,-0.27
2019-01-21T11:14:03.550Z,-0.26
2019-01-21T11:15:05.404Z,-0.26
2019-01-21T11:16:05.194Z,-0.28
2019-01-21T11:17:09.134Z,-0.26
2019-01-21T11:18:07.330Z,-0.24
2019-01-21T11:19:08.027Z,-0.27
2019-01-21T11:20:09.299Z,-0.31
2019-01-21T11:21:10.267Z,-0.44
2019-01-21T11:22:10.081Z,-0.53
2019-01-21T11:23:12.483Z,-0.46
2019-01-21T11:24:17.645Z,-0.48
2019-01-21T11:24:27.898Z,-0.51
2019-01-21T11:25:16.386Z,-0.45
2019-01-21T11:26:16.774Z,-0.56
2019-01-21T11:27:17.932Z,-0.45
2019-01-21T11:28:18.938Z,-0.42
2019-01-21T11:29:19.610Z,-0.41
2019-01-21T11:30:20.395Z,-0.28
2019-01-21T11:31:25.121Z,-0.24
2019-01-21T11:32:25.534Z,-0.26
2019-01-21T11:33:26.247Z,-0.26
2019-01-21T11:34:26.682Z,-0.17
2019-01-21T11:35:28.092Z,-0.09
2019-01-21T11:36:28.168Z,0
2019-01-21T11:37:29.127Z,-0.03
2019-01-21T11:38:29.656Z,0.08
2019-01-21T11:39:30.098Z,0
2019-01-21T11:40:31.807Z,0.05
2019-01-21T11:41:33.218Z,0.08
2019-01-21T11:42:33.172Z,0.01
2019-01-21T11:43:35.949Z,-0.03
2019-01-21T11:44:36.357Z,0
2019-01-21T11:45:36.767Z,0
2019-01-21T11:46:38.707Z,-0.1
2019-01-21T11:47:38.607Z,-0.15
2019-01-21T11:48:39.020Z,-0.21
2019-01-21T11:49:39.721Z,-0.24
2019-01-21T11:50:42.324Z,-0.23
2019-01-21T11:50:55.102Z,-0.35
2019-01-21T11:51:53.280Z,-0.44
2019-01-21T11:52:52.852Z,-0.36
2019-01-21T11:53:53.572Z,-0.41
2019-01-21T11:54:54.131Z,-0.48
2019-01-21T11:55:59.175Z,-0.57
2019-01-21T11:56:10.862Z,-0.56
2019-01-21T11:57:08.448Z,-0.46
2019-01-21T11:58:09.139Z,-0.49
2019-01-21T11:59:10.555Z,-0.54
2019-01-21T12:00:11.291Z,-0.57
2019-01-21T12:01:11.399Z,-0.53
2019-01-21T12:02:12.051Z,-0.42
2019-01-21T12:03:12.210Z,-0.53
2019-01-21T12:04:12.663Z,-0.56
2019-01-21T12:05:13.111Z,-0.54
2019-01-21T12:06:13.796Z,-0.53
2019-01-21T12:07:14.631Z,-0.56
2019-01-21T12:08:15.782Z,-0.48
2019-01-21T12:09:16.492Z,-0.44
2019-01-21T12:10:16.897Z,-0.45
2019-01-21T12:11:18.141Z,-0.38
2019-01-21T12:12:18.552Z,-0.35
2019-01-21T12:13:19.548Z,-0.21
2019-01-21T12:14:19.803Z,-0.26
2019-01-21T12:15:20.577Z,-0.23
2019-01-21T12:16:21.279Z,-0.24
2019-01-21T12:17:22.382Z,0
2019-01-21T12:18:23.080Z,-0.07
2019-01-21T12:19:23.365Z,0.11
2019-01-21T12:20:23.785Z,0.11
2019-01-21T12:21:25.028Z,0.11
2019-01-21T12:22:25.459Z,0.15
2019-01-21T12:23:27.814Z,0.18
2019-01-21T12:24:28.230Z,0.23
2019-01-21T12:25:29.169Z,0.16
2019-01-21T12:26:29.005Z,0.23
2019-01-21T12:27:29.819Z,0.3
2019-01-21T12:28:30.230Z,0.39
2019-01-21T12:29:30.679Z,0.48
2019-01-21T12:30:31.371Z,0.45
2019-01-21T12:31:32.096Z,0.56
2019-01-21T12:32:32.222Z,0.45
2019-01-21T12:33:32.634Z,0.59
2019-01-21T12:34:33.596Z,0.51
2019-01-21T12:35:34.009Z,0.63
2019-01-21T12:36:35.454Z,0.63
2019-01-21T12:37:36.545Z,0.59
2019-01-21T12:38:37.237Z,0.56
2019-01-21T12:39:38.478Z,0.39
2019-01-21T12:40:39.983Z,0.44
2019-01-21T12:41:40.030Z,0.4
2019-01-21T12:42:40.456Z,0.39
2019-01-21T12:43:43.460Z,0.44
2019-01-21T12:44:43.064Z,0.29